createdAt,value
2023-06-27T00:01:54.014Z,12.45
2023-06-27T00:06:55.876Z,12.00
2023-06-27T00:11:57.526Z,12.18
2023-06-27T00:17:01.387Z,11.70
2023-06-27T00:22:07.248Z,12.00
2023-06-27T00:27:09.056Z,12.35
2023-06-27T00:32:10.698Z,11.45
2023-06-27T00:37:13.157Z,11.63
2023-06-27T00:42:14.862Z,11.15
2023-06-27T00:47:16.550Z,11.13
2023-06-27T00:52:18.325Z,11.27
2023-06-27T00:57:21.663Z,11.57
2023-06-27T01:02:25.434Z,11.30
2023-06-27T01:07:35.565Z,11.30
2023-06-27T01:13:11.273Z,11.68
2023-06-27T01:18:13.645Z,10.88
2023-06-27T01:23:21.450Z,11.48
2023-06-27T01:28:25.469Z,11.18
2023-06-27T01:33:33.723Z,10.90
2023-06-27T01:39:06.938Z,11.10
2023-06-27T01:44:11.428Z,11.80
2023-06-27T01:49:17.011Z,11.90
2023-06-27T01:54:18.694Z,11.40
2023-06-27T01:59:20.357Z,11.07
2023-06-27T02:04:22.498Z,11.80
2023-06-27T02:09:24.512Z,12.10
2023-06-27T02:14:26.202Z,11.73
2023-06-27T02:19:27.934Z,11.20
2023-06-27T02:24:29.837Z,11.18
2023-06-27T02:29:31.973Z,12.05
2023-06-27T02:34:33.634Z,11.60
2023-06-27T02:39:35.290Z,11.48
2023-06-27T02:44:37.141Z,11.00
2023-06-27T02:49:38.791Z,10.77
2023-06-27T02:54:40.495Z,11.20
2023-06-27T02:59:42.166Z,11.50
2023-06-27T03:04:43.988Z,11.80
2023-06-27T03:09:45.684Z,12.05
2023-06-27T03:14:49.993Z,11.60
2023-06-27T03:19:51.852Z,11.80
2023-06-27T03:24:53.643Z,12.75
2023-06-27T03:29:55.465Z,12.02
2023-06-27T03:34:59.610Z,12.52
2023-06-27T03:40:01.339Z,12.13
2023-06-27T03:45:04.122Z,12.00
2023-06-27T03:50:06.518Z,12.50
2023-06-27T03:55:08.700Z,12.43
2023-06-27T04:00:12.281Z,12.32
2023-06-27T04:05:19.578Z,12.18
2023-06-27T04:10:21.551Z,12.20
2023-06-27T04:15:23.267Z,12.20
2023-06-27T04:20:25.231Z,12.48
2023-06-27T04:25:31.762Z,12.45
2023-06-27T04:30:33.759Z,12.40
2023-06-27T04:35:35.437Z,12.45
2023-06-27T04:40:37.254Z,12.48
2023-06-27T04:45:39.119Z,12.48
2023-06-27T04:50:41.042Z,12.02
2023-06-27T04:55:44.361Z,12.60
2023-06-27T05:00:48.371Z,11.93
2023-06-27T05:05:50.429Z,11.73
2023-06-27T05:10:52.254Z,11.70
2023-06-27T05:15:53.874Z,12.10
2023-06-27T05:20:56.165Z,11.35
2023-06-27T05:25:57.810Z,10.98
2023-06-27T05:30:59.535Z,11.85
2023-06-27T05:36:01.256Z,12.00
2023-06-27T05:41:03.832Z,12.13
2023-06-27T05:46:05.572Z,11.48
2023-06-27T05:51:08.333Z,12.43
2023-06-27T05:56:10.037Z,12.90
2023-06-27T06:01:11.753Z,12.20
2023-06-27T06:06:13.408Z,12.45
2023-06-27T06:11:15.062Z,12.52
2023-06-27T06:16:16.710Z,12.30
2023-06-27T06:21:18.430Z,12.80
2023-06-27T06:26:20.401Z,12.32
2023-06-27T06:31:24.180Z,13.10
2023-06-27T06:36:25.913Z,12.57
2023-06-27T06:41:28.498Z,12.98
2023-06-27T06:46:30.197Z,13.13
2023-06-27T06:51:31.970Z,12.82
2023-06-27T06:56:33.624Z,12.48
2023-06-27T07:01:35.369Z,12.40
2023-06-27T07:06:37.193Z,12.65
2023-06-27T07:11:38.903Z,12.20
2023-06-27T07:16:40.601Z,12.57
2023-06-27T07:21:42.500Z,13.10
2023-06-27T07:26:44.238Z,13.15
2023-06-27T07:31:45.934Z,12.68
2023-06-27T07:36:48.865Z,13.07
2023-06-27T07:41:51.309Z,12.93
2023-06-27T07:46:53.021Z,13.60
2023-06-27T07:51:54.634Z,12.77
2023-06-27T07:56:57.739Z,13.55
2023-06-27T08:01:59.856Z,14.00
2023-06-27T08:07:01.646Z,13.38
2023-06-27T08:12:04.703Z,13.15
2023-06-27T08:17:06.710Z,13.40
2023-06-27T08:22:09.006Z,13.80
2023-06-27T08:27:10.750Z,13.48
2023-06-27T08:32:12.498Z,13.27
2023-06-27T08:37:14.796Z,13.50
2023-06-27T08:42:16.441Z,13.30
2023-06-27T08:47:22.334Z,13.30
2023-06-27T08:52:25.841Z,13.02
2023-06-27T08:57:32.707Z,13.32
2023-06-27T09:02:35.989Z,13.48
2023-06-27T09:07:37.974Z,13.25
2023-06-27T09:12:42.486Z,13.60
2023-06-27T09:17:44.152Z,13.30
2023-06-27T09:22:46.257Z,13.30
2023-06-27T09:27:49.174Z,13.90
2023-06-27T09:32:53.621Z,13.80
2023-06-27T09:43:13.217Z,13.90
2023-06-27T09:48:18.727Z,14.15
2023-06-27T09:53:20.487Z,13.60
2023-06-27T09:58:32.166Z,13.70
2023-06-27T10:03:38.127Z,13.52
2023-06-27T10:08:40.632Z,14.10
2023-06-27T10:13:42.727Z,14.25
2023-06-27T10:18:44.972Z,13.95
2023-06-27T10:23:49.929Z,13.80
2023-06-27T10:28:52.158Z,13.57
2023-06-27T10:33:54.340Z,13.90
2023-06-27T10:38:56.496Z,13.77
2023-06-27T10:43:58.175Z,13.57
2023-06-27T10:49:03.081Z,13.77
2023-06-27T10:54:08.636Z,14.27
2023-06-27T10:59:13.149Z,13.88
2023-06-27T11:04:26.800Z,14.20
2023-06-27T11:09:32.481Z,14.25
2023-06-27T11:14:40.364Z,13.80
2023-06-27T11:19:43.802Z,13.55
2023-06-27T11:24:46.473Z,14.80
2023-06-27T11:29:48.121Z,13.93
2023-06-27T11:34:50.183Z,13.98
2023-06-27T11:39:57.849Z,14.25
2023-06-27T11:44:59.530Z,13.93
2023-06-27T11:50:08.378Z,13.95
2023-06-27T11:55:10.250Z,14.32
2023-06-27T12:00:18.048Z,13.65
2023-06-27T12:05:23.337Z,14.05
2023-06-27T12:10:25.602Z,13.70
2023-06-27T12:15:27.281Z,14.38
2023-06-27T12:20:49.162Z,13.10
2023-06-27T12:25:51.292Z,14.00
2023-06-27T12:30:52.974Z,14.02
2023-06-27T12:35:55.694Z,14.15
2023-06-27T12:40:57.362Z,14.50
2023-06-27T12:46:00.910Z,14.60
2023-06-27T12:51:04.012Z,14.20
2023-06-27T12:56:06.302Z,14.23
2023-06-27T13:01:08.223Z,14.07
2023-06-27T13:06:10.092Z,14.13
2023-06-27T13:11:12.001Z,13.70
2023-06-27T13:16:16.476Z,14.32
2023-06-27T13:21:19.948Z,13.90
2023-06-27T13:26:22.203Z,14.15
2023-06-27T13:31:24.424Z,14.32
2023-06-27T13:36:26.283Z,14.05
2023-06-27T13:41:30.249Z,13.77
2023-06-27T13:46:31.893Z,14.27
2023-06-27T13:51:33.532Z,13.55
2023-06-27T13:56:37.301Z,13.20
2023-06-27T14:01:40.176Z,13.75
2023-06-27T14:06:42.113Z,13.48
2023-06-27T14:11:43.855Z,14.30
2023-06-27T14:16:45.559Z,14.13
2023-06-27T14:21:47.255Z,14.30
2023-06-27T14:26:48.931Z,14.13
2023-06-27T14:31:50.624Z,14.32
2023-06-27T14:36:53.297Z,14.00
2023-06-27T14:41:55.035Z,14.45
2023-06-27T14:46:56.794Z,14.32
2023-06-27T14:51:58.485Z,14.55
2023-06-27T14:57:00.156Z,14.25
2023-06-27T15:02:01.825Z,14.82
2023-06-27T15:07:03.577Z,15.18
2023-06-27T15:12:05.814Z,14.90
2023-06-27T15:17:07.552Z,14.75
2023-06-27T15:22:09.202Z,15.48
2023-06-27T15:27:10.917Z,15.02
2023-06-27T15:32:12.961Z,15.35
2023-06-27T15:37:14.751Z,14.93
2023-06-27T15:42:16.601Z,14.70
2023-06-27T15:47:18.565Z,14.43
2023-06-27T15:52:20.419Z,14.60
2023-06-27T15:57:22.472Z,14.73
2023-06-27T16:02:24.528Z,14.65
2023-06-27T16:07:26.271Z,15.15
2023-06-27T16:12:28.133Z,14.52
2023-06-27T16:17:29.981Z,14.57
2023-06-27T16:22:32.197Z,14.60
2023-06-27T16:27:34.017Z,14.23
2023-06-27T16:32:36.995Z,15.15
2023-06-27T16:37:38.767Z,15.05
2023-06-27T16:42:40.485Z,14.73
2023-06-27T16:47:42.200Z,14.73
2023-06-27T16:52:43.876Z,14.48
2023-06-27T16:57:45.521Z,14.40
2023-06-27T17:02:49.145Z,14.48
2023-06-27T17:07:51.028Z,14.95
2023-06-27T17:12:53.069Z,14.48
2023-06-27T17:17:54.794Z,14.90
2023-06-27T17:22:56.481Z,14.65
2023-06-27T17:27:58.247Z,14.65
2023-06-27T17:32:59.962Z,14.75
2023-06-27T17:38:01.809Z,14.63
2023-06-27T17:43:03.485Z,14.60
2023-06-27T17:48:05.587Z,14.55
2023-06-27T17:53:07.277Z,14.30
2023-06-27T17:58:09.036Z,14.63
2023-06-27T18:03:10.727Z,14.30
2023-06-27T18:08:13.896Z,14.13
2023-06-27T18:13:15.640Z,13.95
2023-06-27T18:18:17.576Z,13.98
2023-06-27T18:23:19.223Z,14.65
2023-06-27T18:28:26.415Z,13.63
2023-06-27T18:33:28.066Z,13.63
2023-06-27T18:38:32.029Z,13.93
2023-06-27T18:43:33.734Z,13.60
2023-06-27T18:48:36.297Z,13.73
2023-06-27T18:53:38.096Z,13.18
2023-06-27T18:58:40.890Z,13.40
2023-06-27T19:03:42.620Z,13.65
2023-06-27T19:08:44.378Z,12.60
2023-06-27T19:13:47.286Z,13.60
2023-06-27T19:18:49.340Z,12.50
2023-06-27T19:23:51.521Z,12.63
2023-06-27T19:28:53.196Z,12.65
2023-06-27T19:33:54.989Z,12.07
2023-06-27T19:38:56.659Z,12.27
2023-06-27T19:43:58.366Z,12.35
2023-06-27T19:49:00.246Z,12.60
2023-06-27T19:54:01.904Z,11.95
2023-06-27T19:59:03.642Z,12.15
2023-06-27T20:04:05.369Z,11.70
2023-06-27T20:09:07.077Z,11.10
2023-06-27T20:14:10.897Z,11.18
2023-06-27T20:19:12.778Z,11.23
2023-06-27T20:24:14.511Z,11.07
2023-06-27T20:29:16.142Z,10.38
2023-06-27T20:34:17.775Z,10.20
2023-06-27T20:39:19.449Z,10.30
2023-06-27T20:44:21.224Z,10.70
2023-06-27T20:49:22.868Z,9.80
2023-06-27T20:54:24.487Z,10.00
2023-06-27T20:59:26.227Z,9.90
2023-06-27T21:04:28.002Z,9.30
2023-06-27T21:09:29.692Z,9.40
2023-06-27T21:14:31.400Z,9.35
2023-06-27T21:19:33.066Z,9.52
2023-06-27T21:24:34.710Z,9.40
2023-06-27T21:29:36.363Z,8.98
2023-06-27T21:34:38.009Z,9.02
2023-06-27T21:39:40.041Z,8.77
2023-06-27T21:44:41.685Z,8.60
2023-06-27T21:49:43.355Z,8.90
2023-06-27T21:54:45.029Z,8.45
2023-06-27T21:59:46.692Z,9.02
2023-06-27T22:04:48.468Z,8.32
2023-06-27T22:09:50.430Z,8.63
2023-06-27T22:14:53.080Z,8.63
2023-06-27T22:19:54.965Z,8.98
2023-06-27T22:24:57.936Z,9.32
2023-06-27T22:29:59.710Z,8.68
2023-06-27T22:35:01.364Z,8.50
2023-06-27T22:40:03.778Z,8.60
2023-06-27T22:45:06.536Z,8.30
2023-06-27T22:50:08.630Z,8.75
2023-06-27T22:55:10.286Z,8.60
2023-06-27T23:00:13.172Z,8.15
2023-06-27T23:05:15.086Z,8.05
2023-06-27T23:10:16.765Z,7.93
2023-06-27T23:15:18.388Z,7.70
2023-06-27T23:20:20.099Z,7.95
2023-06-27T23:25:22.975Z,7.43
2023-06-27T23:30:27.553Z,7.57
2023-06-27T23:35:29.372Z,7.70
2023-06-27T23:40:31.089Z,8.00
2023-06-27T23:45:33.505Z,7.68
2023-06-27T23:50:35.179Z,7.45
2023-06-27T23:55:36.805Z,7.03
